Marshall Municipal-Ryan, MN

01:42 AM CDT am 01. November 2014 (GMT -0500)
Tracy | Change Station
CLOSE
Current Station
Flughafen
Location: Tracy,
Höhe: 1339 ft
Wetterstationen in der Umgebung

Höhe 1339 ft 44.25 °N, 95.61 °W | Updated 10 minutes ago

Heiter
Heiter
26 °F
gefühlte 18 °F
N
8
Wind Wechselnd Wind aus Süd

Heute
Max. -- | schwach -- °F
--% Regenrisiko
Gestern
Max. -- | schwach -- °F
Precip. -- inch
8:00 AM 6:12 PM
Zweites Viertel, 63% visible
Druck 30.42 inch
Sichtweite 10.0 Meilen
Wolken Heiter
Windchill 18 °F
Taupunkt 17 °F
Feuchtigkeit 67%
Regen 0.00 inch
Schneehöhe Nicht verfügbar..
UV 0 von 12
Pollen .10 von 12
Luftqualität Nicht verfügbar..
Flu Activity Nicht verfügbar..
METAR KTKC 010632Z AUTO 17007KT 10SM CLR M03/M08 A3042 RMK AO2 LTG DSNT SE T10321085

More Conditions Fewer Conditions

Druck 30.42 inch
Sichtweite 10.0 Meilen
Wolken Heiter
Windchill 18 °F
Taupunkt 17 °F
Feuchtigkeit 67%
Regen 0.00 inch
Schneehöhe Nicht verfügbar..
UV 0 von 12
Pollen .10 von 12
Luftqualität Nicht verfügbar..
Flu Activity Nicht verfügbar..
METAR KTKC 010632Z AUTO 17007KT 10SM CLR M03/M08 A3042 RMK AO2 LTG DSNT SE T10321085

More Conditions Fewer Conditions

10-Day Weather Forecast

Almanac

Astronomie

Nov. 01, 2014 Aufgang Untergang
Genaue Zeit
Bürgerliche Dämmerung
Nautische Dämmerung
Astronomische Dämmerung
Mond
Länge des sichtbaren Lichts
Tageslänge
Tomorrow will be .
, % of the Moon is Illuminated

Heutige Rekorde

State Highs State Lows

Community

WunderPhotos

Upload Photos

1,766,865 Fotos hochgeladen!

WunderBlogs® & News

Nearby

Luftqualität

  Luftqualität LQ Index Schadstoff
Not available.

Schneehöhe

Station Depth Höhe

Erdbebenaktivität

Stadt Distance Mag. Time & Date
Minimum magnitude displayed is 2.5.

küstennahe Wassertemperaturen

Ort Temperatur

Wetterstationen in der Umgebung